createdAt,value
2023-03-21T00:00:29.735Z,14.93
2023-03-21T00:02:56.370Z,16.43
2023-03-21T00:05:23.605Z,12.90
2023-03-21T00:07:50.622Z,15.00
2023-03-21T00:13:05.697Z,13.87
2023-03-21T00:15:42.671Z,13.67
2023-03-21T00:18:15.945Z,9.03
2023-03-21T00:20:47.325Z,13.57
2023-03-21T00:23:14.069Z,8.73
2023-03-21T00:25:40.822Z,13.37
2023-03-21T00:28:08.738Z,12.87
2023-03-21T00:30:35.474Z,12.90
2023-03-21T00:33:12.127Z,11.57
2023-03-21T00:36:06.003Z,10.07
2023-03-21T00:38:33.680Z,9.70
2023-03-21T00:41:04.585Z,10.83
2023-03-21T00:43:34.385Z,13.70
2023-03-21T00:46:00.933Z,12.57
2023-03-21T00:48:27.992Z,10.03
2023-03-21T00:50:57.183Z,9.40
2023-03-21T00:53:24.042Z,14.50
2023-03-21T00:55:50.574Z,13.13
2023-03-21T00:58:18.080Z,13.43
2023-03-21T01:00:47.050Z,14.67
2023-03-21T01:03:24.277Z,16.63
2023-03-21T01:06:04.534Z,8.33
2023-03-21T01:08:54.812Z,15.33
2023-03-21T01:11:27.050Z,14.93
2023-03-21T01:14:04.144Z,17.57
2023-03-21T01:16:35.224Z,17.23
2023-03-21T01:19:05.194Z,15.57
2023-03-21T01:21:36.218Z,19.53
2023-03-21T01:24:03.167Z,18.97
2023-03-21T01:26:29.920Z,9.23
2023-03-21T01:28:56.423Z,16.07
2023-03-21T01:31:23.057Z,13.70
2023-03-21T01:33:49.622Z,15.20
2023-03-21T01:36:22.653Z,12.47
2023-03-21T01:38:49.959Z,13.37
2023-03-21T01:41:42.029Z,15.57
2023-03-21T01:44:16.945Z,14.33
2023-03-21T01:46:57.426Z,14.10
2023-03-21T01:49:40.968Z,19.53
2023-03-21T01:52:17.022Z,17.67
2023-03-21T01:54:48.078Z,15.53
2023-03-21T01:57:35.494Z,15.80
2023-03-21T02:00:12.636Z,15.27
2023-03-21T02:02:52.206Z,12.73
2023-03-21T02:05:24.905Z,16.87
2023-03-21T02:07:53.002Z,18.03
2023-03-21T02:10:20.569Z,17.47
2023-03-21T02:12:47.456Z,15.73
2023-03-21T02:15:14.644Z,22.03
2023-03-21T02:18:03.772Z,16.57
2023-03-21T02:21:00.746Z,13.77
2023-03-21T02:23:39.123Z,13.13
2023-03-21T02:26:45.137Z,14.97
2023-03-21T02:29:13.132Z,16.40
2023-03-21T02:32:16.472Z,13.77
2023-03-21T02:35:17.192Z,16.73
2023-03-21T02:38:00.651Z,16.83
2023-03-21T02:40:39.948Z,12.50
2023-03-21T02:43:25.998Z,11.80
2023-03-21T02:45:59.513Z,15.27
2023-03-21T02:48:44.791Z,14.80
2023-03-21T02:51:21.191Z,13.73
2023-03-21T02:54:12.977Z,14.43
2023-03-21T02:56:41.446Z,15.00
2023-03-21T02:59:08.873Z,14.10
2023-03-21T03:01:36.269Z,13.63
2023-03-21T03:04:03.368Z,15.10
2023-03-21T03:06:52.687Z,15.53
2023-03-21T03:09:55.695Z,17.43
2023-03-21T03:12:55.947Z,13.10
2023-03-21T03:16:06.569Z,14.27
2023-03-21T03:18:48.774Z,15.23
2023-03-21T03:21:40.718Z,13.93
2023-03-21T03:24:13.857Z,15.50
2023-03-21T03:26:54.369Z,14.73
2023-03-21T03:29:23.230Z,13.60
2023-03-21T03:32:09.044Z,11.37
2023-03-21T03:34:40.460Z,12.30
2023-03-21T03:37:10.567Z,10.90
2023-03-21T03:39:47.724Z,12.67
2023-03-21T03:42:28.534Z,15.20
2023-03-21T03:44:55.983Z,14.27
2023-03-21T03:47:56.058Z,16.33
2023-03-21T03:50:38.695Z,13.87
2023-03-21T03:53:28.438Z,14.93
2023-03-21T03:55:57.121Z,14.07
2023-03-21T03:58:36.145Z,13.93
2023-03-21T04:01:10.058Z,13.80
2023-03-21T04:03:48.985Z,16.93
2023-03-21T04:06:17.643Z,14.23
2023-03-21T04:08:44.605Z,13.63
2023-03-21T04:11:14.057Z,14.83
2023-03-21T04:13:42.047Z,12.83
2023-03-21T04:16:10.296Z,15.73
2023-03-21T04:18:39.184Z,21.77
2023-03-21T04:21:10.837Z,14.50
2023-03-21T04:23:38.139Z,14.13
2023-03-21T04:26:05.686Z,14.60
2023-03-21T04:28:33.529Z,17.77
2023-03-21T04:31:05.245Z,15.00
2023-03-21T04:33:38.503Z,12.53
2023-03-21T04:36:09.443Z,14.07
2023-03-21T04:38:36.490Z,15.20
2023-03-21T04:41:03.769Z,12.50
2023-03-21T04:43:32.623Z,13.70
2023-03-21T04:45:59.279Z,12.77
2023-03-21T04:48:26.267Z,15.57
2023-03-21T04:50:52.813Z,15.90
2023-03-21T04:53:19.586Z,16.30
2023-03-21T04:55:46.117Z,12.07
2023-03-21T04:58:12.818Z,15.77
2023-03-21T05:00:40.319Z,14.60
2023-03-21T05:03:10.768Z,13.90
2023-03-21T05:05:39.050Z,14.90
2023-03-21T05:08:06.450Z,12.37
2023-03-21T05:10:33.298Z,11.13
2023-03-21T05:12:59.880Z,14.80
2023-03-21T05:15:26.336Z,11.47
2023-03-21T05:17:52.995Z,12.87
2023-03-21T05:20:19.837Z,14.50
2023-03-21T05:22:50.125Z,13.63
2023-03-21T05:25:18.361Z,11.47
2023-03-21T05:27:54.168Z,16.47
2023-03-21T05:30:20.973Z,9.17
2023-03-21T05:32:47.807Z,14.97
2023-03-21T05:35:14.375Z,14.80
2023-03-21T05:37:40.853Z,17.17
2023-03-21T05:40:08.867Z,14.97
2023-03-21T05:42:35.517Z,13.73
2023-03-21T05:45:02.368Z,13.73
2023-03-21T05:47:28.903Z,16.80
2023-03-21T05:49:55.374Z,14.67
2023-03-21T05:52:21.885Z,13.27
2023-03-21T05:54:48.557Z,11.83
2023-03-21T05:57:15.669Z,15.10
2023-03-21T05:59:42.116Z,16.03
2023-03-21T06:02:08.992Z,12.93
2023-03-21T06:04:36.106Z,12.40
2023-03-21T06:07:02.646Z,14.77
2023-03-21T06:09:29.550Z,15.87
2023-03-21T06:11:57.247Z,15.57
2023-03-21T06:14:24.646Z,12.97
2023-03-21T06:16:52.536Z,15.80
2023-03-21T06:19:26.241Z,16.07
2023-03-21T06:21:52.763Z,14.13
2023-03-21T06:24:19.215Z,16.53
2023-03-21T06:26:47.447Z,13.03
2023-03-21T06:29:14.048Z,14.53
2023-03-21T06:31:40.869Z,14.07
2023-03-21T06:34:07.772Z,17.10
2023-03-21T06:36:34.345Z,17.30
2023-03-21T06:39:00.920Z,14.53
2023-03-21T06:41:27.462Z,13.93
2023-03-21T06:43:54.022Z,14.97
2023-03-21T06:46:20.594Z,10.37
2023-03-21T06:48:47.210Z,17.53
2023-03-21T06:51:14.934Z,12.87
2023-03-21T06:53:41.580Z,14.73
2023-03-21T06:56:10.200Z,13.97
2023-03-21T06:58:36.776Z,16.60
2023-03-21T07:01:04.741Z,15.63
2023-03-21T07:03:32.045Z,15.67
2023-03-21T07:05:58.726Z,19.90
2023-03-21T07:08:25.355Z,14.33
2023-03-21T07:10:57.440Z,13.47
2023-03-21T07:13:24.397Z,13.37
2023-03-21T07:15:53.292Z,13.27
2023-03-21T07:18:19.864Z,13.80
2023-03-21T07:20:51.326Z,13.17
2023-03-21T07:23:19.148Z,17.27
2023-03-21T07:25:48.418Z,12.87
2023-03-21T07:28:16.490Z,11.57
2023-03-21T07:30:43.786Z,14.13
2023-03-21T07:33:10.917Z,15.63
2023-03-21T07:35:37.919Z,11.90
2023-03-21T07:38:05.839Z,15.63
2023-03-21T07:40:32.976Z,12.77
2023-03-21T07:42:59.632Z,14.30
2023-03-21T07:45:27.395Z,15.60
2023-03-21T07:47:54.588Z,11.47
2023-03-21T07:50:21.504Z,15.13
2023-03-21T07:52:48.394Z,12.70
2023-03-21T07:55:17.317Z,12.50
2023-03-21T07:57:43.888Z,11.27
2023-03-21T08:00:11.262Z,12.40
2023-03-21T08:02:37.932Z,12.63
2023-03-21T08:05:04.810Z,11.80
2023-03-21T08:07:31.513Z,11.83
2023-03-21T08:09:58.049Z,13.17
2023-03-21T08:12:25.032Z,14.73
2023-03-21T08:14:52.242Z,13.27
2023-03-21T08:17:19.166Z,12.77
2023-03-21T08:19:45.772Z,8.97
2023-03-21T08:22:12.457Z,10.97
2023-03-21T08:24:38.999Z,9.93
2023-03-21T08:27:05.863Z,12.83
2023-03-21T08:29:32.534Z,14.07
2023-03-21T08:31:59.074Z,12.67
2023-03-21T08:34:26.466Z,9.67
2023-03-21T08:36:53.080Z,17.00
2023-03-21T08:39:21.836Z,15.17
2023-03-21T08:41:48.490Z,18.13
2023-03-21T08:44:16.954Z,12.67
2023-03-21T08:46:43.592Z,12.40
2023-03-21T08:49:10.154Z,13.03
2023-03-21T08:51:37.720Z,15.57
2023-03-21T08:54:04.462Z,10.50
2023-03-21T08:56:31.245Z,16.00
2023-03-21T08:58:59.027Z,13.83
2023-03-21T09:01:26.315Z,13.57
2023-03-21T09:03:53.210Z,13.77
2023-03-21T09:06:19.772Z,14.07
2023-03-21T09:08:46.448Z,15.03
2023-03-21T09:11:13.130Z,11.80
2023-03-21T09:13:39.672Z,17.73
2023-03-21T09:16:06.600Z,14.50
2023-03-21T09:18:47.301Z,12.17
2023-03-21T09:21:16.612Z,14.23
2023-03-21T09:23:49.168Z,12.43
2023-03-21T09:26:16.555Z,12.90
2023-03-21T09:28:43.045Z,12.83
2023-03-21T09:31:12.386Z,19.00
2023-03-21T09:33:43.350Z,11.73
2023-03-21T09:36:19.496Z,18.13
2023-03-21T09:38:47.273Z,12.47
2023-03-21T09:41:32.423Z,14.67
2023-03-21T09:44:23.119Z,15.90
2023-03-21T09:47:05.628Z,14.97
2023-03-21T09:49:43.598Z,13.10
2023-03-21T09:52:18.901Z,15.60
2023-03-21T09:54:45.797Z,15.77
2023-03-21T09:57:32.596Z,13.83
2023-03-21T10:00:08.146Z,20.17
2023-03-21T10:02:36.230Z,16.80
2023-03-21T10:05:13.188Z,15.67
2023-03-21T10:07:44.696Z,13.33
2023-03-21T10:10:18.893Z,19.07
2023-03-21T10:12:47.227Z,18.13
2023-03-21T10:15:21.464Z,15.67
2023-03-21T10:17:55.279Z,15.87
2023-03-21T10:20:29.586Z,18.30
2023-03-21T10:22:58.278Z,14.13
2023-03-21T10:25:34.741Z,13.97
2023-03-21T10:28:02.340Z,14.43
2023-03-21T10:30:44.426Z,13.77
2023-03-21T10:33:36.322Z,13.00
2023-03-21T10:36:07.124Z,13.53
2023-03-21T10:38:35.445Z,14.47
2023-03-21T10:41:01.896Z,13.50
2023-03-21T10:43:29.757Z,19.00
2023-03-21T10:45:57.073Z,13.93
2023-03-21T10:48:24.797Z,17.17
2023-03-21T10:50:56.182Z,15.67
2023-03-21T10:53:30.342Z,14.90
2023-03-21T10:56:00.606Z,12.93
2023-03-21T10:58:33.380Z,12.87
2023-03-21T11:01:07.245Z,15.67
2023-03-21T11:03:38.615Z,16.53
2023-03-21T11:06:27.285Z,14.77
2023-03-21T11:09:01.708Z,13.87
2023-03-21T11:11:49.543Z,13.47
2023-03-21T11:14:41.134Z,16.63
2023-03-21T11:17:16.802Z,16.53
2023-03-21T11:19:52.823Z,16.27
2023-03-21T11:22:25.572Z,13.40
2023-03-21T11:24:56.692Z,11.73
2023-03-21T11:27:24.782Z,12.87
2023-03-21T11:29:52.184Z,16.07
2023-03-21T11:32:36.220Z,12.00
2023-03-21T11:35:28.112Z,16.30
2023-03-21T11:37:56.688Z,9.87
2023-03-21T11:40:26.294Z,12.63
2023-03-21T11:43:02.025Z,14.70
2023-03-21T11:45:31.430Z,11.17
2023-03-21T11:48:00.824Z,12.57
2023-03-21T11:50:40.772Z,10.57
2023-03-21T11:53:39.602Z,10.70
2023-03-21T11:56:12.512Z,10.77
2023-03-21T11:58:45.220Z,12.70
2023-03-21T12:01:53.228Z,7.83
2023-03-21T12:04:37.228Z,11.17
2023-03-21T12:07:03.682Z,13.47
2023-03-21T12:09:47.773Z,11.23
2023-03-21T12:12:14.219Z,11.37
2023-03-21T12:15:07.439Z,10.70
2023-03-21T12:17:58.640Z,8.97
2023-03-21T12:20:28.207Z,11.53
2023-03-21T12:23:11.548Z,9.73
2023-03-21T12:25:56.541Z,10.00
2023-03-21T12:28:54.038Z,9.07
2023-03-21T12:31:53.038Z,9.30
2023-03-21T12:34:36.976Z,11.83
2023-03-21T12:37:21.769Z,11.10
2023-03-21T12:39:49.928Z,11.00
2023-03-21T12:42:34.767Z,9.37
2023-03-21T12:45:15.213Z,7.33
2023-03-21T12:47:49.831Z,9.73
2023-03-21T12:50:26.773Z,10.53
2023-03-21T12:52:59.954Z,9.13
2023-03-21T12:55:33.474Z,8.53
2023-03-21T12:58:18.319Z,9.97
2023-03-21T13:00:53.450Z,9.97
2023-03-21T13:03:27.639Z,8.97
2023-03-21T13:06:06.181Z,11.13
2023-03-21T13:08:38.371Z,8.97
2023-03-21T13:11:07.624Z,7.93
2023-03-21T13:14:06.033Z,9.13
2023-03-21T13:16:37.375Z,9.00
2023-03-21T13:19:15.774Z,8.30
2023-03-21T13:21:42.354Z,8.17
2023-03-21T13:24:33.726Z,6.30
2023-03-21T13:27:26.458Z,5.40
2023-03-21T13:30:00.168Z,11.97
2023-03-21T13:32:26.799Z,8.57
2023-03-21T13:34:59.642Z,10.33
2023-03-21T13:37:31.149Z,7.87
2023-03-21T13:40:09.360Z,6.23
2023-03-21T13:42:42.514Z,5.87
2023-03-21T13:45:25.532Z,6.00
2023-03-21T13:48:03.493Z,5.90
2023-03-21T13:50:36.481Z,6.67
2023-03-21T13:53:14.927Z,10.50
2023-03-21T13:55:44.905Z,7.40
2023-03-21T13:58:32.266Z,10.13
2023-03-21T14:01:35.699Z,9.33
2023-03-21T14:04:20.835Z,16.03
2023-03-21T14:07:01.869Z,6.73
2023-03-21T14:09:36.383Z,9.20
2023-03-21T14:12:07.821Z,8.63
2023-03-21T14:14:40.433Z,7.10
2023-03-21T14:17:14.338Z,4.87
2023-03-21T14:19:40.860Z,9.30
2023-03-21T14:22:13.236Z,14.93
2023-03-21T14:24:41.266Z,8.33
2023-03-21T14:27:08.890Z,5.63
2023-03-21T14:29:35.865Z,9.63
2023-03-21T14:32:03.699Z,7.73
2023-03-21T14:34:33.289Z,7.10
2023-03-21T14:36:59.829Z,6.20
2023-03-21T14:39:31.991Z,11.93
2023-03-21T14:42:11.014Z,8.43
2023-03-21T14:44:52.878Z,7.73
2023-03-21T14:47:26.137Z,9.57
2023-03-21T14:49:53.071Z,7.67
2023-03-21T14:52:30.035Z,8.10
2023-03-21T14:54:57.185Z,9.33
2023-03-21T14:57:29.030Z,10.67
2023-03-21T15:00:00.167Z,6.77
2023-03-21T15:02:31.633Z,5.83
2023-03-21T15:05:05.421Z,8.43
2023-03-21T15:07:34.358Z,6.27
2023-03-21T15:10:05.922Z,8.20
2023-03-21T15:12:33.310Z,9.10
2023-03-21T15:15:01.715Z,8.03
2023-03-21T15:17:29.084Z,6.83
2023-03-21T15:19:55.620Z,7.57
2023-03-21T15:22:41.492Z,8.57
2023-03-21T15:25:13.084Z,7.97
2023-03-21T15:27:42.168Z,6.00
2023-03-21T15:30:23.794Z,7.60
2023-03-21T15:32:51.178Z,6.63
2023-03-21T15:35:27.486Z,5.20
2023-03-21T15:37:56.760Z,6.40
2023-03-21T15:40:26.535Z,8.40
2023-03-21T15:43:14.846Z,7.27
2023-03-21T15:45:54.679Z,7.60
2023-03-21T15:48:26.766Z,6.07
2023-03-21T15:51:23.715Z,8.53
2023-03-21T15:53:54.703Z,7.87
2023-03-21T15:56:22.305Z,7.07
2023-03-21T15:58:52.768Z,7.57
2023-03-21T16:01:22.100Z,5.53
2023-03-21T16:03:56.265Z,6.97
2023-03-21T16:06:30.131Z,5.40
2023-03-21T16:09:09.148Z,5.97
2023-03-21T16:11:42.577Z,8.13
2023-03-21T16:14:09.807Z,7.50
2023-03-21T16:16:36.688Z,6.47
2023-03-21T16:19:03.791Z,8.53
2023-03-21T16:21:31.617Z,7.13
2023-03-21T16:23:58.742Z,4.70
2023-03-21T16:26:28.605Z,8.80
2023-03-21T16:28:55.407Z,7.70
2023-03-21T16:31:24.634Z,4.63
2023-03-21T16:33:51.656Z,5.73
2023-03-21T16:36:21.425Z,6.93
2023-03-21T16:38:52.934Z,9.13
2023-03-21T16:41:20.642Z,8.87
2023-03-21T16:43:47.641Z,7.73
2023-03-21T16:46:19.679Z,7.17
2023-03-21T16:48:48.996Z,7.50
2023-03-21T16:51:21.661Z,8.43
2023-03-21T16:53:49.497Z,8.53
2023-03-21T16:56:26.050Z,9.73
2023-03-21T16:58:56.903Z,7.27
2023-03-21T17:01:27.380Z,9.50
2023-03-21T17:03:54.317Z,7.63
2023-03-21T17:06:23.410Z,6.93
2023-03-21T17:08:50.898Z,5.77
2023-03-21T17:11:22.663Z,7.93
2023-03-21T17:13:54.351Z,7.40
2023-03-21T17:16:26.720Z,6.10
2023-03-21T17:18:54.399Z,8.93
2023-03-21T17:21:26.492Z,9.37
2023-03-21T17:23:53.993Z,7.33
2023-03-21T17:26:27.241Z,8.13
2023-03-21T17:28:57.368Z,6.53
2023-03-21T17:31:26.122Z,5.93
2023-03-21T17:33:52.780Z,6.40
2023-03-21T17:36:34.923Z,8.43
2023-03-21T17:39:04.501Z,9.17
2023-03-21T17:41:30.952Z,5.97
2023-03-21T17:43:57.480Z,7.93
2023-03-21T17:46:27.203Z,9.20
2023-03-21T17:48:53.728Z,7.60
2023-03-21T17:51:20.377Z,11.37
2023-03-21T17:53:50.643Z,9.03
2023-03-21T17:56:31.795Z,7.13
2023-03-21T17:59:07.437Z,7.23
2023-03-21T18:01:35.477Z,6.73
2023-03-21T18:04:04.812Z,8.67
2023-03-21T18:06:33.984Z,9.43
2023-03-21T18:09:01.478Z,6.97
2023-03-21T18:11:27.982Z,8.97
2023-03-21T18:14:06.599Z,8.90
2023-03-21T18:16:36.667Z,5.60
2023-03-21T18:19:03.573Z,6.97
2023-03-21T18:21:33.103Z,7.03
2023-03-21T18:23:59.621Z,11.67
2023-03-21T18:26:26.131Z,7.70
2023-03-21T18:29:36.785Z,9.10
2023-03-21T18:31:39.593Z,15.60
2023-03-21T18:34:06.216Z,7.60
2023-03-21T18:36:33.964Z,8.10
2023-03-21T18:39:02.664Z,7.13
2023-03-21T18:41:29.448Z,6.53
2023-03-21T18:44:01.245Z,9.13
2023-03-21T18:46:36.836Z,8.27
2023-03-21T18:49:33.735Z,9.50
2023-03-21T18:51:51.413Z,8.10
2023-03-21T18:54:18.102Z,5.43
2023-03-21T18:57:31.679Z,6.37
2023-03-21T18:59:38.935Z,6.67
2023-03-21T19:02:05.977Z,7.77
2023-03-21T19:04:33.705Z,6.03
2023-03-21T19:07:00.369Z,8.23
2023-03-21T19:09:31.152Z,8.80
2023-03-21T19:11:59.227Z,8.13
2023-03-21T19:14:25.706Z,8.60
2023-03-21T19:19:39.407Z,7.23
2023-03-21T19:22:06.584Z,6.57
2023-03-21T19:24:33.243Z,7.07
2023-03-21T19:26:59.863Z,8.57
2023-03-21T19:29:26.584Z,9.37
2023-03-21T19:31:53.587Z,6.43
2023-03-21T19:34:20.792Z,8.70
2023-03-21T19:36:51.386Z,9.17
2023-03-21T19:39:22.072Z,6.50
2023-03-21T19:41:48.904Z,7.27
2023-03-21T19:44:15.437Z,7.43
2023-03-21T19:46:42.133Z,9.87
2023-03-21T19:49:08.896Z,9.23
2023-03-21T19:51:35.857Z,9.77
2023-03-21T19:54:05.670Z,7.67
2023-03-21T19:56:34.588Z,10.00
2023-03-21T19:59:02.920Z,7.87
2023-03-21T20:01:30.397Z,7.53
2023-03-21T20:03:56.917Z,8.33
2023-03-21T20:06:26.870Z,6.80
2023-03-21T20:09:34.038Z,8.87
2023-03-21T20:11:41.454Z,10.13
2023-03-21T20:14:08.439Z,9.07
2023-03-21T20:16:36.739Z,8.13
2023-03-21T20:19:06.086Z,6.20
2023-03-21T20:21:42.447Z,8.33
2023-03-21T20:24:13.004Z,9.00
2023-03-21T20:26:39.532Z,6.73
2023-03-21T20:29:48.407Z,7.13
2023-03-21T20:31:53.248Z,7.87
2023-03-21T20:34:20.543Z,7.77
2023-03-21T20:36:48.172Z,8.13
2023-03-21T20:39:15.389Z,5.60
2023-03-21T20:41:41.939Z,6.90
2023-03-21T20:46:56.609Z,7.83
2023-03-21T20:49:24.429Z,10.20
2023-03-21T20:52:47.859Z,8.33
2023-03-21T20:54:37.866Z,6.27
2023-03-21T20:57:05.062Z,7.37
2023-03-21T20:59:31.704Z,7.77
2023-03-21T21:01:58.671Z,7.57
2023-03-21T21:04:52.796Z,8.80
2023-03-21T21:07:22.625Z,9.57
2023-03-21T21:09:50.183Z,8.77
2023-03-21T21:12:19.337Z,7.87
2023-03-21T21:14:46.787Z,11.73
2023-03-21T21:20:01.656Z,9.53
2023-03-21T21:22:28.892Z,7.97
2023-03-21T21:24:55.391Z,7.20
2023-03-21T21:27:24.258Z,9.13
2023-03-21T21:29:50.792Z,5.40
2023-03-21T21:32:19.179Z,10.50
2023-03-21T21:34:45.706Z,8.37
2023-03-21T21:37:12.487Z,8.00
2023-03-21T21:39:40.244Z,8.47
2023-03-21T21:42:06.766Z,9.70
2023-03-21T21:44:33.362Z,8.83
2023-03-21T21:46:59.924Z,11.30
2023-03-21T21:49:26.991Z,16.27
2023-03-21T21:51:53.557Z,8.47
2023-03-21T21:54:20.063Z,6.30
2023-03-21T21:56:49.126Z,7.83
2023-03-21T21:59:22.097Z,6.83
2023-03-21T22:01:51.503Z,7.63
2023-03-21T22:04:19.178Z,13.33
2023-03-21T22:06:47.611Z,7.97
2023-03-21T22:09:15.874Z,7.70
2023-03-21T22:11:42.497Z,6.10
2023-03-21T22:14:08.998Z,9.33
2023-03-21T22:16:35.588Z,6.83
2023-03-21T22:19:02.129Z,7.57
2023-03-21T22:21:28.609Z,10.00
2023-03-21T22:23:55.331Z,6.13
2023-03-21T22:26:21.970Z,6.77
2023-03-21T22:28:48.489Z,7.77
2023-03-21T22:31:17.421Z,13.37
2023-03-21T22:33:44.562Z,12.07
2023-03-21T22:36:11.670Z,14.33
2023-03-21T22:38:38.451Z,9.93
2023-03-21T22:41:06.412Z,6.83
2023-03-21T22:43:34.399Z,7.37
2023-03-21T22:46:02.583Z,6.97
2023-03-21T22:48:30.181Z,9.07
2023-03-21T22:50:58.019Z,7.27
2023-03-21T22:53:25.548Z,7.77
2023-03-21T22:55:52.049Z,8.40
2023-03-21T22:58:18.879Z,11.83
2023-03-21T23:00:45.639Z,10.43
2023-03-21T23:03:13.050Z,10.37
2023-03-21T23:05:43.669Z,13.60
2023-03-21T23:08:10.387Z,9.13
2023-03-21T23:10:39.183Z,9.40
2023-03-21T23:13:06.724Z,11.27
2023-03-21T23:15:33.323Z,13.60
2023-03-21T23:17:59.857Z,10.23
2023-03-21T23:20:26.518Z,10.30
2023-03-21T23:22:53.039Z,8.77
2023-03-21T23:25:20.732Z,9.87
2023-03-21T23:27:47.970Z,10.37
2023-03-21T23:30:14.844Z,11.33
2023-03-21T23:32:41.476Z,9.77
2023-03-21T23:35:09.476Z,10.37
2023-03-21T23:37:35.949Z,11.23
2023-03-21T23:40:03.565Z,9.10
2023-03-21T23:42:30.661Z,10.47
2023-03-21T23:44:57.263Z,18.40
2023-03-21T23:47:24.031Z,17.93
2023-03-21T23:49:52.757Z,20.03
2023-03-21T23:52:19.341Z,22.23
2023-03-21T23:54:46.217Z,15.83
2023-03-21T23:57:12.778Z,12.50
2023-03-21T23:59:39.260Z,13.53
